الصفحة الرئيسية
METAR-TAF:

METAR-TAF

مطار :

غراند براري, ألبرتا, كندا

دائرة عرض: 55-11N, خط طول: 118-53W, ارتفاع: 666 متر

مراقبة الطقس الحالي

تاريخ ووقت الإصدار 1ساعة و 7 دقيقة قبل الساعة 16:00UTC
ريح 23 عقدة من الغرب تتزايد حتى 31 عقدة
درجة الحرارة 4°درجة مئوية
الرطوبة 38%
ضغط 1016 hPa
الرؤية: 40.2 كم
غيوم قليلة على ارتفاع 4500 قدم
غيوم متفرقة على ارتفاع 15000 قدم
غيوم متفرقة على ارتفاع 24000 قدم
زخات في الجوار

METAR: CYQU 241600Z CCA 26023G31KT 25SM VCSH FEW045 SCT150 SCT240 04/M09 A3000 RMK CU2AC1CI1 SLP187

زمن: 11:07 (17:07 UTC)

توقعات

تاريخ ووقت الإصدار 1ساعة و 5 دقيقة قبل الساعة 16:02UTC
التوقعات صالحة من24 الساعة 16 UTC إلى 25 الساعة 01 UTC
ريح 22 عقدة من الغرب تتزايد حتى 32 عقدة
الرؤية: 10 كم
غيوم قليلة على ارتفاع 5000 قدم
غيوم متفرقة على ارتفاع 15000 قدم
من 24 الساعة 2100 UTC
ريح 25 عقدة من الغرب تتزايد حتى 35 عقدة
الرؤية: 10 كم
غيوم مفككة على ارتفاع 8000 قدم

TAF: CYQU 241602Z 2416/2501 26022G32KT P6SM FEW050 SCT150 FM242100 27025G35KT P6SM BKN080 RMK NXT FCST BY 241900Z

أرصاد الطقس والتوقعات من أكثر من 4000 مطار (تقارير الطقس للمطار METAR والتنبؤ بالطقس بالمطارTAF).

المحطات المتاحة هي النقط الصفراء والحمراء على الخريطة.

حرك المؤشر فوق النقطة لمعرفة اسم المحطة.

ثم انقر لمعرفة أرصاد وتوقعات الطقس.

لتغيير الخارطة: اضغط على الأزرار الخضراء مع رمز الصليب الأسود للتكبير. على الزر الأخضر مع شرطة للتصغير، أو على الأسهم الخضراء للخرائط المجاورة.


METAR-TAF: